Time;durP1;ratioP1;P1;durP2;ratioP2;P2;SDS_P1;SDS_P2;PMS_P1;PMS_P2;Temp;Humidity;BMP_temperature;BMP_pressure;BME280_temperature;BME280_humidity;BME280_pressure;Samples;Min_cycle;Max_cycle;Signal;HPM_P1;HPM_P2
2022/03/08 00:01:59;;;;;;;7.80;4.85;;;18.70;55.00;;;;;;5015215;28;20064;-58
2022/03/08 00:04:27;;;;;;;8.63;4.95;;;18.60;55.10;;;;;;5014384;28;20033;-58
2022/03/08 00:06:53;;;;;;;8.98;5.20;;;18.60;55.00;;;;;;5018959;28;20053;-58
2022/03/08 00:09:19;;;;;;;8.45;4.95;;;18.60;55.10;;;;;;5018166;28;20053;-58
2022/03/08 00:11:44;;;;;;;7.85;4.75;;;18.60;55.30;;;;;;5018073;28;20474;-59
2022/03/08 00:14:10;;;;;;;7.80;4.90;;;18.50;55.20;;;;;;5016378;28;20036;-59
2022/03/08 00:16:35;;;;;;;9.45;4.90;;;18.50;55.30;;;;;;5013957;28;20026;-58
2022/03/08 00:19:01;;;;;;;8.02;5.10;;;18.50;55.20;;;;;;5018102;28;20022;-59
2022/03/08 00:21:27;;;;;;;7.47;4.82;;;18.50;55.40;;;;;;5017866;28;20136;-59
2022/03/08 00:23:52;;;;;;;9.77;5.03;;;18.40;55.50;;;;;;5018674;28;20022;-58
2022/03/08 00:26:18;;;;;;;8.02;5.28;;;18.40;55.60;;;;;;5017100;28;20155;-59
2022/03/08 00:28:44;;;;;;;8.02;5.07;;;18.40;55.40;;;;;;5024644;28;20087;-59
2022/03/08 00:31:09;;;;;;;8.45;5.25;;;18.40;55.40;;;;;;5017058;28;20101;-59
2022/03/08 00:33:35;;;;;;;8.25;4.93;;;18.30;55.30;;;;;;5018666;28;20029;-59
2022/03/08 00:36:01;;;;;;;8.73;5.22;;;18.30;55.30;;;;;;5018412;28;20022;-59
2022/03/08 00:38:26;;;;;;;8.15;5.47;;;18.30;55.40;;;;;;5012818;28;20482;-58
2022/03/08 00:40:52;;;;;;;8.45;5.65;;;18.30;55.40;;;;;;5028888;28;20502;-59
2022/03/08 00:43:18;;;;;;;8.48;5.50;;;18.20;55.10;;;;;;5021249;28;20502;-59
2022/03/08 00:45:43;;;;;;;8.60;5.80;;;18.20;55.20;;;;;;5018923;28;20064;-59
2022/03/08 00:48:09;;;;;;;8.48;5.40;;;18.20;55.20;;;;;;5018283;28;20044;-58
2022/03/08 00:50:36;;;;;;;8.40;5.50;;;18.10;55.10;;;;;;5018162;28;20152;-58
2022/03/08 00:53:02;;;;;;;8.35;4.85;;;18.10;55.20;;;;;;5014728;28;20021;-59
2022/03/08 00:55:29;;;;;;;8.57;5.70;;;18.10;56.30;;;;;;5013500;28;20081;-58
2022/03/08 00:57:54;;;;;;;8.50;5.78;;;18.10;55.40;;;;;;5018165;28;20168;-59
2022/03/08 01:00:21;;;;;;;7.60;5.28;;;18.00;55.10;;;;;;5018131;28;20108;-59
2022/03/08 01:02:47;;;;;;;8.35;5.43;;;18.00;55.10;;;;;;5016401;28;20032;-59
2022/03/08 01:05:13;;;;;;;8.80;5.90;;;18.00;55.00;;;;;;5015940;28;20017;-58
2022/03/08 01:07:38;;;;;;;9.65;5.15;;;18.00;54.90;;;;;;5013440;28;20104;-59
2022/03/08 01:10:05;;;;;;;8.30;5.78;;;17.90;55.00;;;;;;5016533;28;20030;-59
2022/03/08 01:12:31;;;;;;;10.30;5.85;;;17.90;55.00;;;;;;5017681;28;20036;-58
2022/03/08 01:14:57;;;;;;;7.97;5.50;;;17.90;55.00;;;;;;5017769;28;20030;-59
2022/03/08 01:17:22;;;;;;;8.05;5.20;;;17.80;55.00;;;;;;5017142;28;20029;-58
2022/03/08 01:19:48;;;;;;;8.32;5.60;;;17.80;54.80;;;;;;5015428;28;20075;-59
2022/03/08 01:22:14;;;;;;;8.07;5.35;;;17.80;55.00;;;;;;5015607;28;20475;-58
2022/03/08 01:24:39;;;;;;;9.60;5.63;;;17.80;54.80;;;;;;5017321;28;20022;-59
2022/03/08 01:27:05;;;;;;;8.32;5.38;;;17.80;54.80;;;;;;5017364;28;20112;-59
2022/03/08 01:29:31;;;;;;;9.20;6.00;;;17.80;54.90;;;;;;5017535;28;20025;-58
2022/03/08 01:31:56;;;;;;;9.00;5.57;;;17.70;54.80;;;;;;5013240;28;20037;-59
2022/03/08 01:34:22;;;;;;;8.43;5.60;;;17.70;54.60;;;;;;5014328;28;20022;-59
2022/03/08 01:36:47;;;;;;;13.10;5.85;;;17.70;54.60;;;;;;5017225;28;20042;-58
2022/03/08 01:39:13;;;;;;;8.77;5.90;;;17.70;54.70;;;;;;5016620;28;20026;-59
2022/03/08 01:41:39;;;;;;;8.98;5.80;;;17.60;54.60;;;;;;5019949;28;20033;-58
2022/03/08 01:44:07;;;;;;;8.85;5.68;;;17.60;54.60;;;;;;5014276;28;20029;-58
2022/03/08 01:46:32;;;;;;;10.13;5.70;;;17.60;54.60;;;;;;5012946;28;20032;-58
2022/03/08 01:48:58;;;;;;;8.77;5.75;;;17.60;54.60;;;;;;5017169;28;20018;-59
2022/03/08 01:51:24;;;;;;;8.10;5.35;;;17.50;54.50;;;;;;5017290;28;20055;-59
2022/03/08 01:53:49;;;;;;;8.30;5.78;;;17.50;54.60;;;;;;5014209;28;20041;-58
2022/03/08 01:56:15;;;;;;;8.13;5.55;;;17.50;54.50;;;;;;5060507;28;20033;-58
2022/03/08 01:58:41;;;;;;;8.98;5.80;;;17.40;54.60;;;;;;5025500;28;20504;-58
2022/03/08 02:01:06;;;;;;;8.95;5.90;;;17.40;54.60;;;;;;5015889;28;20567;-59
2022/03/08 02:03:32;;;;;;;10.77;5.95;;;17.40;54.50;;;;;;5017101;28;20060;-58
2022/03/08 02:05:58;;;;;;;7.93;5.55;;;17.40;54.60;;;;;;5017112;28;20026;-58
2022/03/08 02:08:24;;;;;;;8.20;5.70;;;17.40;54.60;;;;;;5016359;28;20106;-58
2022/03/08 02:10:51;;;;;;;9.18;5.82;;;17.30;54.50;;;;;;5011281;28;20032;-58
2022/03/08 02:13:17;;;;;;;9.07;5.57;;;17.30;54.60;;;;;;5025951;28;20056;-58
2022/03/08 02:15:46;;;;;;;8.70;5.70;;;17.30;54.60;;;;;;5022072;28;20061;-59
2022/03/08 02:18:12;;;;;;;8.20;5.70;;;17.30;54.80;;;;;;5021569;28;20029;-58
2022/03/08 02:20:38;;;;;;;10.05;5.90;;;17.20;54.60;;;;;;5030864;28;20171;-59
2022/03/08 02:23:03;;;;;;;9.15;5.78;;;17.20;54.50;;;;;;5017367;28;20029;-59
2022/03/08 02:25:29;;;;;;;9.15;6.28;;;17.20;54.50;;;;;;5016647;28;20022;-59
2022/03/08 02:27:55;;;;;;;8.98;6.00;;;17.20;54.50;;;;;;5020849;28;20037;-58
2022/03/08 02:30:22;;;;;;;8.30;5.75;;;17.20;54.50;;;;;;5020723;28;20104;-58
2022/03/08 02:32:47;;;;;;;8.85;6.03;;;17.20;54.50;;;;;;5020905;28;20026;-58
2022/03/08 02:35:16;;;;;;;9.07;6.32;;;17.10;54.50;;;;;;5018883;28;20028;-58
2022/03/08 02:37:43;;;;;;;8.55;5.65;;;17.10;55.40;;;;;;5015858;28;20479;-59
2022/03/08 02:40:11;;;;;;;8.90;5.80;;;17.10;54.40;;;;;;5019132;28;20043;-58
2022/03/08 02:42:36;;;;;;;8.40;5.78;;;17.10;54.50;;;;;;5020424;28;20034;-58
2022/03/08 02:45:03;;;;;;;8.88;6.13;;;17.10;54.50;;;;;;5020525;28;20026;-59
2022/03/08 02:47:29;;;;;;;8.88;5.65;;;17.00;54.60;;;;;;5020418;28;20068;-58
2022/03/08 02:49:54;;;;;;;8.15;5.75;;;17.00;54.60;;;;;;5015759;28;20545;-58
2022/03/08 02:52:20;;;;;;;9.13;6.25;;;17.00;54.60;;;;;;5017207;28;20506;-59
2022/03/08 02:54:45;;;;;;;8.90;5.93;;;17.00;54.50;;;;;;5020224;28;20030;-58
2022/03/08 02:57:11;;;;;;;9.23;6.05;;;16.90;54.40;;;;;;5025899;28;20075;-59
2022/03/08 02:59:37;;;;;;;9.02;5.97;;;16.90;54.50;;;;;;5031259;28;20045;-58
2022/03/08 03:02:03;;;;;;;8.25;5.43;;;16.90;54.50;;;;;;5031546;28;20064;-59
2022/03/08 03:04:29;;;;;;;9.05;5.75;;;16.90;54.40;;;;;;5014725;28;20399;-59
2022/03/08 03:06:54;;;;;;;8.57;5.50;;;16.90;54.50;;;;;;5020107;28;20030;-58
2022/03/08 03:09:20;;;;;;;8.95;6.25;;;16.90;54.40;;;;;;5019416;28;20030;-58
2022/03/08 03:11:45;;;;;;;8.30;5.63;;;16.80;54.30;;;;;;5019889;28;20453;-59
2022/03/08 03:14:11;;;;;;;9.35;6.13;;;16.80;54.30;;;;;;5017873;28;20474;-58
2022/03/08 03:16:37;;;;;;;9.23;5.63;;;16.80;54.40;;;;;;5015561;28;20486;-58
2022/03/08 03:19:03;;;;;;;8.25;5.45;;;16.70;54.20;;;;;;5019028;28;20399;-59
2022/03/08 03:21:29;;;;;;;8.85;5.93;;;16.70;54.30;;;;;;5019337;28;20041;-58
2022/03/08 03:23:54;;;;;;;9.50;5.88;;;16.70;54.20;;;;;;5019802;28;20026;-58
2022/03/08 03:26:20;;;;;;;8.75;5.75;;;16.70;54.20;;;;;;5018033;28;20494;-59
2022/03/08 03:28:45;;;;;;;9.00;6.20;;;16.70;54.20;;;;;;5029629;28;20558;-58
2022/03/08 03:31:11;;;;;;;8.98;5.70;;;16.70;54.10;;;;;;5018045;28;20025;-58
2022/03/08 03:33:37;;;;;;;9.10;5.97;;;16.70;53.90;;;;;;5019623;28;20033;-58
2022/03/08 03:36:02;;;;;;;9.23;6.07;;;16.70;53.80;;;;;;5019170;28;20025;-58
2022/03/08 03:38:28;;;;;;;8.73;5.97;;;16.60;53.50;;;;;;5019343;28;20056;-58
2022/03/08 03:40:54;;;;;;;10.68;6.38;;;16.60;53.60;;;;;;5014760;28;20045;-58
2022/03/08 03:43:19;;;;;;;9.25;6.32;;;16.60;53.40;;;;;;5016609;28;20045;-58
2022/03/08 03:45:45;;;;;;;9.75;6.20;;;16.60;53.20;;;;;;5028943;28;20530;-58
2022/03/08 03:48:11;;;;;;;9.45;6.28;;;16.60;53.30;;;;;;5024747;28;20089;-58
2022/03/08 03:50:36;;;;;;;9.30;5.95;;;16.60;53.20;;;;;;5018958;28;20028;-58
2022/03/08 03:53:02;;;;;;;9.27;6.00;;;16.50;53.30;;;;;;5015851;28;20021;-58
2022/03/08 03:55:28;;;;;;;8.75;6.07;;;16.50;53.30;;;;;;5013907;28;20021;-58
2022/03/08 03:57:53;;;;;;;10.02;6.45;;;16.50;53.30;;;;;;5018954;28;20462;-58
2022/03/08 04:00:19;;;;;;;9.85;6.20;;;16.50;53.30;;;;;;5019710;28;20637;-58
2022/03/08 04:02:51;;;;;;;9.00;6.13;;;16.50;53.30;;;;;;5023505;28;20566;-58
2022/03/08 04:05:17;;;;;;;9.38;6.22;;;16.40;52.90;;;;;;5029939;28;20034;-58
2022/03/08 04:07:43;;;;;;;10.43;6.43;;;16.40;52.80;;;;;;5035644;28;20025;-58
2022/03/08 04:10:09;;;;;;;8.40;5.63;;;16.40;53.00;;;;;;5017436;28;20556;-58
2022/03/08 04:12:35;;;;;;;9.00;6.00;;;16.40;53.10;;;;;;5018833;28;20124;-58
2022/03/08 04:15:01;;;;;;;9.20;6.32;;;16.40;53.10;;;;;;5018814;28;20557;-59
2022/03/08 04:17:27;;;;;;;8.95;6.40;;;16.40;53.20;;;;;;5018100;28;20048;-62
2022/03/08 04:19:52;;;;;;;9.57;6.18;;;16.30;53.50;;;;;;5026760;28;20025;-59
2022/03/08 04:22:18;;;;;;;9.38;6.20;;;16.40;53.80;;;;;;5016103;28;20037;-58
2022/03/08 04:24:44;;;;;;;9.30;6.53;;;16.40;53.60;;;;;;5032004;28;20353;-58
2022/03/08 04:27:09;;;;;;;8.55;5.68;;;16.40;54.30;;;;;;5034141;28;20021;-58
2022/03/08 04:29:35;;;;;;;8.88;5.95;;;16.30;54.00;;;;;;5023573;28;20030;-58
2022/03/08 04:32:01;;;;;;;8.85;5.55;;;16.30;54.50;;;;;;5024311;28;20410;-58
2022/03/08 04:34:26;;;;;;;8.75;6.00;;;16.30;54.30;;;;;;5023335;28;20053;-58
2022/03/08 04:36:52;;;;;;;9.07;5.65;;;16.30;54.30;;;;;;5028869;28;20037;-58
2022/03/08 04:39:18;;;;;;;8.90;5.35;;;16.30;54.80;;;;;;5028050;28;20029;-58
2022/03/08 04:41:44;;;;;;;10.27;6.18;;;16.30;54.40;;;;;;5028277;28;20037;-58
2022/03/08 04:44:09;;;;;;;8.60;5.28;;;16.30;55.10;;;;;;5028748;28;20067;-58
2022/03/08 04:46:35;;;;;;;9.40;5.60;;;16.30;55.20;;;;;;5029093;28;20307;-58
2022/03/08 04:49:00;;;;;;;9.82;5.85;;;16.20;54.80;;;;;;5029499;28;20056;-59
2022/03/08 04:51:26;;;;;;;8.73;6.03;;;16.20;54.80;;;;;;5020373;28;20056;-58
2022/03/08 04:53:52;;;;;;;8.93;5.68;;;16.20;55.00;;;;;;5028028;28;20032;-59
2022/03/08 04:56:18;;;;;;;8.77;5.57;;;16.30;55.00;;;;;;5028595;28;20026;-58
2022/03/08 04:58:45;;;;;;;8.80;5.47;;;16.20;54.60;;;;;;5028140;28;20084;-58
2022/03/08 05:01:10;;;;;;;9.32;5.55;;;16.20;55.00;;;;;;5029589;28;20037;-58
2022/03/08 05:03:36;;;;;;;11.23;6.00;;;16.20;54.70;;;;;;5018376;28;20038;-58
2022/03/08 05:06:02;;;;;;;9.82;5.95;;;16.20;54.80;;;;;;5021684;28;20732;-58
2022/03/08 05:08:28;;;;;;;10.45;5.90;;;16.20;54.70;;;;;;5027731;28;20027;-58
2022/03/08 05:10:54;;;;;;;11.02;6.45;;;16.20;55.00;;;;;;5013445;28;20405;-59
2022/03/08 05:13:19;;;;;;;8.63;5.43;;;16.20;54.70;;;;;;5015075;28;20033;-58
2022/03/08 05:15:48;;;;;;;9.32;6.13;;;16.10;54.60;;;;;;5017170;28;20113;-58
2022/03/08 05:18:15;;;;;;;9.77;6.40;;;16.10;54.80;;;;;;5022930;28;20477;-58
2022/03/08 05:20:41;;;;;;;9.38;5.70;;;16.10;55.00;;;;;;5026976;28;20075;-58
2022/03/08 05:23:06;;;;;;;9.63;5.78;;;16.10;54.90;;;;;;5014474;28;20041;-58
2022/03/08 05:25:32;;;;;;;9.55;6.22;;;16.00;54.80;;;;;;5013340;28;20021;-58
2022/03/08 05:27:58;;;;;;;9.02;5.90;;;16.00;54.60;;;;;;5016453;28;20080;-59
2022/03/08 05:30:23;;;;;;;10.25;5.90;;;16.00;55.00;;;;;;5017125;28;20057;-58
2022/03/08 05:32:49;;;;;;;7.97;5.32;;;16.00;54.70;;;;;;5015976;28;20059;-58
2022/03/08 05:35:15;;;;;;;8.80;6.13;;;16.00;54.80;;;;;;5028871;28;20033;-58
2022/03/08 05:37:40;;;;;;;9.25;6.10;;;16.00;54.80;;;;;;5013003;28;20030;-59
2022/03/08 05:40:07;;;;;;;9.07;6.03;;;16.00;54.70;;;;;;5016022;28;20050;-58
2022/03/08 05:42:32;;;;;;;9.10;6.03;;;16.00;54.70;;;;;;5020474;28;20033;-58
2022/03/08 05:44:58;;;;;;;9.27;6.00;;;16.00;54.70;;;;;;5023963;28;20025;-58
2022/03/08 05:47:24;;;;;;;8.23;5.43;;;16.00;54.70;;;;;;5016675;28;20068;-58
2022/03/08 05:49:49;;;;;;;9.70;5.30;;;15.90;55.40;;;;;;5019252;28;20496;-58
2022/03/08 05:52:15;;;;;;;8.50;5.53;;;15.90;56.00;;;;;;5015131;28;20033;-58
2022/03/08 05:54:41;;;;;;;8.23;5.50;;;15.90;55.90;;;;;;5017269;28;20022;-59
2022/03/08 05:57:06;;;;;;;9.32;5.60;;;15.90;56.30;;;;;;5016992;28;20180;-58
2022/03/08 05:59:32;;;;;;;10.13;5.70;;;15.90;56.40;;;;;;5016964;28;20465;-59
2022/03/08 06:01:58;;;;;;;10.55;5.57;;;15.90;56.30;;;;;;5013119;28;20113;-58
2022/03/08 06:04:23;;;;;;;9.40;5.53;;;15.90;56.40;;;;;;5018450;28;20029;-59
2022/03/08 06:06:50;;;;;;;9.07;5.35;;;15.90;56.40;;;;;;5017366;28;20037;-58
2022/03/08 06:09:16;;;;;;;9.40;5.47;;;15.90;56.60;;;;;;5016827;28;20498;-59
2022/03/08 06:11:42;;;;;;;10.65;6.13;;;15.90;56.90;;;;;;5016982;28;20091;-58
2022/03/08 06:14:08;;;;;;;10.15;5.75;;;15.90;58.00;;;;;;5013923;28;20458;-59
2022/03/08 06:16:33;;;;;;;11.52;5.90;;;15.90;58.30;;;;;;5021729;28;20021;-58
2022/03/08 06:19:00;;;;;;;10.50;5.85;;;15.90;58.50;;;;;;5028308;28;20033;-59
2022/03/08 06:21:26;;;;;;;10.82;5.72;;;15.90;58.60;;;;;;5019459;28;20506;-58
2022/03/08 06:23:51;;;;;;;12.02;6.10;;;15.90;58.50;;;;;;5016881;28;20026;-59
2022/03/08 06:26:17;;;;;;;9.63;5.80;;;15.90;58.50;;;;;;5015506;28;20438;-58
2022/03/08 06:28:43;;;;;;;10.02;6.00;;;15.90;58.30;;;;;;5016638;28;20025;-58
2022/03/08 06:31:09;;;;;;;10.35;5.63;;;15.90;58.50;;;;;;5015365;28;20026;-58
2022/03/08 06:33:35;;;;;;;11.13;6.20;;;15.90;58.40;;;;;;5017816;28;20037;-59
2022/03/08 06:36:00;;;;;;;9.32;5.60;;;15.90;58.30;;;;;;5024296;28;20033;-59
2022/03/08 06:38:26;;;;;;;9.50;5.57;;;15.80;58.40;;;;;;5035700;28;20083;-59
2022/03/08 06:40:52;;;;;;;11.60;5.60;;;15.90;58.50;;;;;;5013635;28;20052;-59
2022/03/08 06:43:17;;;;;;;10.93;5.75;;;15.90;58.60;;;;;;5014001;28;20395;-58
2022/03/08 06:45:43;;;;;;;10.82;5.50;;;15.80;58.50;;;;;;5016518;28;20026;-59
2022/03/08 06:48:10;;;;;;;11.27;5.80;;;15.80;58.50;;;;;;5016522;28;20061;-59
2022/03/08 06:50:36;;;;;;;10.48;5.78;;;15.90;58.60;;;;;;5016749;28;20096;-59
2022/03/08 06:53:02;;;;;;;9.90;5.32;;;15.80;58.60;;;;;;5025917;28;20449;-59
2022/03/08 06:55:28;;;;;;;11.13;5.82;;;15.90;58.60;;;;;;5012572;28;20045;-59
2022/03/08 06:57:54;;;;;;;9.82;6.13;;;15.80;58.70;;;;;;5015995;28;20593;-58
2022/03/08 07:00:20;;;;;;;11.38;5.90;;;15.80;58.50;;;;;;5018073;28;20573;-59
2022/03/08 07:02:45;;;;;;;10.50;5.60;;;15.80;58.50;;;;;;5020694;28;20042;-58
2022/03/08 07:05:11;;;;;;;12.43;5.93;;;15.80;58.50;;;;;;5017756;28;20459;-58
2022/03/08 07:07:38;;;;;;;10.75;5.95;;;15.80;58.50;;;;;;5026220;28;20060;-59
2022/03/08 07:10:07;;;;;;;12.00;6.00;;;15.70;58.60;;;;;;5021964;28;20079;-59
2022/03/08 07:12:32;;;;;;;12.13;5.75;;;15.70;58.60;;;;;;5021558;28;20038;-59
2022/03/08 07:14:58;;;;;;;11.38;6.20;;;15.70;58.60;;;;;;5021493;28;20032;-59
2022/03/08 07:17:24;;;;;;;11.82;5.78;;;15.70;58.50;;;;;;5035131;28;20033;-59
2022/03/08 07:19:49;;;;;;;11.57;6.03;;;15.80;58.50;;;;;;5015053;28;20033;-59
2022/03/08 07:22:17;;;;;;;12.52;5.82;;;15.70;58.50;;;;;;5017662;28;20038;-58
2022/03/08 07:24:42;;;;;;;13.20;6.43;;;15.70;58.50;;;;;;5028562;28;20045;-58
2022/03/08 07:27:08;;;;;;;12.80;6.28;;;15.70;58.50;;;;;;5025009;28;20033;-58
2022/03/08 07:29:35;;;;;;;13.98;5.95;;;15.70;58.50;;;;;;5019646;28;20056;-58
2022/03/08 07:32:00;;;;;;;11.60;5.90;;;15.70;58.60;;;;;;5015856;28;20033;-59
2022/03/08 07:34:26;;;;;;;14.15;6.20;;;15.70;58.50;;;;;;5015561;28;20025;-58
2022/03/08 07:36:52;;;;;;;11.73;6.43;;;15.70;58.60;;;;;;5019872;28;20080;-59
2022/03/08 07:39:17;;;;;;;11.80;5.80;;;15.70;58.50;;;;;;5019173;28;20104;-59
2022/03/08 07:41:43;;;;;;;11.13;5.80;;;15.70;58.80;;;;;;5019200;28;20072;-58
2022/03/08 07:44:09;;;;;;;12.98;5.70;;;15.60;58.60;;;;;;5025546;28;20053;-59
2022/03/08 07:46:35;;;;;;;11.73;5.95;;;15.60;58.60;;;;;;5029734;28;20035;-58
2022/03/08 07:49:00;;;;;;;13.02;5.97;;;15.70;58.80;;;;;;5019118;28;20029;-58
2022/03/08 07:51:26;;;;;;;11.77;5.97;;;15.60;58.70;;;;;;5019126;28;20084;-58
2022/03/08 07:53:52;;;;;;;12.38;6.00;;;15.60;58.70;;;;;;5019163;28;20053;-59
2022/03/08 07:56:17;;;;;;;9.48;5.70;;;15.60;58.70;;;;;;5017531;28;20030;-58
2022/03/08 07:58:43;;;;;;;10.52;5.82;;;15.60;58.70;;;;;;5014369;28;20673;-58
2022/03/08 08:01:09;;;;;;;10.20;5.63;;;15.70;58.70;;;;;;5029358;28;20630;-59
2022/03/08 08:03:34;;;;;;;10.98;5.82;;;15.70;58.70;;;;;;5021391;28;20038;-59
2022/03/08 08:06:02;;;;;;;9.98;5.70;;;15.60;58.60;;;;;;5019088;28;20044;-58
2022/03/08 08:08:27;;;;;;;11.93;5.95;;;15.60;58.60;;;;;;5018741;28;20053;-58
2022/03/08 08:10:53;;;;;;;10.98;5.50;;;15.60;58.60;;;;;;5013642;28;20061;-58
2022/03/08 08:13:19;;;;;;;10.10;5.60;;;15.60;58.60;;;;;;5016390;28;20026;-58
2022/03/08 08:15:44;;;;;;;8.52;4.80;;;15.60;58.50;;;;;;5018646;28;20412;-58
2022/03/08 08:18:10;;;;;;;12.90;5.82;;;15.60;58.50;;;;;;5021405;28;20065;-58
2022/03/08 08:20:36;;;;;;;10.38;5.32;;;15.60;58.50;;;;;;5029027;28;20026;-58
2022/03/08 08:23:01;;;;;;;11.27;5.63;;;15.60;58.50;;;;;;5013697;28;20037;-59
2022/03/08 08:25:27;;;;;;;8.77;5.40;;;15.60;58.50;;;;;;5014108;28;20064;-58
2022/03/08 08:27:53;;;;;;;10.15;5.25;;;15.60;58.50;;;;;;5019009;28;20049;-58
2022/03/08 08:30:18;;;;;;;10.55;5.40;;;15.60;58.40;;;;;;5018651;28;20510;-58
2022/03/08 08:32:44;;;;;;;12.00;5.60;;;15.60;58.40;;;;;;5018537;28;20465;-59
2022/03/08 08:35:10;;;;;;;10.32;5.20;;;15.60;58.30;;;;;;5021641;28;20069;-58
2022/03/08 08:37:35;;;;;;;10.52;5.28;;;15.50;58.40;;;;;;5014050;28;20501;-58
2022/03/08 08:40:02;;;;;;;11.95;5.55;;;15.50;58.40;;;;;;5017352;28;20046;-58
2022/03/08 08:42:28;;;;;;;9.68;5.10;;;15.50;58.30;;;;;;5018095;28;20032;-58
2022/03/08 08:44:53;;;;;;;11.63;5.57;;;15.50;58.30;;;;;;5018290;28;20032;-59
2022/03/08 08:47:19;;;;;;;10.90;5.05;;;15.50;58.20;;;;;;5016953;28;20029;-58
2022/03/08 08:49:44;;;;;;;8.38;4.78;;;15.50;58.30;;;;;;5016533;28;20032;-58
2022/03/08 08:52:11;;;;;;;10.73;4.75;;;15.50;58.20;;;;;;5016938;28;20040;-58
2022/03/08 08:54:37;;;;;;;9.88;5.03;;;15.50;58.20;;;;;;5017948;28;20109;-58
2022/03/08 08:57:02;;;;;;;8.68;5.00;;;15.50;58.20;;;;;;5018202;28;20112;-59
2022/03/08 08:59:28;;;;;;;9.57;5.05;;;15.50;58.20;;;;;;5017962;28;20450;-59
2022/03/08 09:01:54;;;;;;;8.30;4.85;;;15.50;58.20;;;;;;5013198;28;20041;-58
2022/03/08 09:04:19;;;;;;;9.55;4.75;;;15.50;58.10;;;;;;5015374;28;20105;-59
2022/03/08 09:06:45;;;;;;;9.25;5.15;;;15.50;58.10;;;;;;5027450;28;20112;-58
2022/03/08 09:09:12;;;;;;;11.10;5.20;;;15.50;58.10;;;;;;5022952;28;20117;-58
2022/03/08 09:11:37;;;;;;;9.10;4.80;;;15.50;58.00;;;;;;5017935;28;20101;-59
2022/03/08 09:14:04;;;;;;;9.25;4.75;;;15.50;58.10;;;;;;5013369;28;20582;-58
2022/03/08 09:16:30;;;;;;;8.55;5.03;;;15.50;58.00;;;;;;5013052;28;20053;-58
2022/03/08 09:18:56;;;;;;;10.68;4.97;;;15.50;58.00;;;;;;5017789;28;20066;-58
2022/03/08 09:21:21;;;;;;;8.85;4.65;;;15.50;58.00;;;;;;5017277;28;20667;-58
2022/03/08 09:23:47;;;;;;;8.20;4.35;;;15.50;58.00;;;;;;5024618;28;20025;-58
2022/03/08 09:26:13;;;;;;;8.48;4.82;;;15.50;58.00;;;;;;5015546;28;20025;-58
2022/03/08 09:28:38;;;;;;;8.30;4.60;;;15.50;57.90;;;;;;5012700;28;20026;-59
2022/03/08 09:31:04;;;;;;;8.27;4.78;;;15.50;57.90;;;;;;5016851;28;20040;-58
2022/03/08 09:33:30;;;;;;;8.85;5.10;;;15.50;57.90;;;;;;5018847;28;20056;-58
2022/03/08 09:35:55;;;;;;;11.30;5.35;;;15.50;57.90;;;;;;5025066;28;20022;-59
2022/03/08 09:38:21;;;;;;;8.90;5.10;;;15.40;57.80;;;;;;5016014;28;20079;-58
2022/03/08 09:40:47;;;;;;;7.30;4.60;;;15.50;57.90;;;;;;5012403;28;20819;-58
2022/03/08 09:43:15;;;;;;;11.15;5.03;;;15.50;57.80;;;;;;5015242;28;20506;-58
2022/03/08 09:45:40;;;;;;;8.45;4.85;;;15.50;58.00;;;;;;5017312;28;20037;-59
2022/03/08 09:48:06;;;;;;;9.00;4.78;;;15.40;57.80;;;;;;5017053;28;20034;-58
2022/03/08 09:50:32;;;;;;;8.52;5.10;;;15.50;57.80;;;;;;5017331;28;20028;-58
2022/03/08 09:52:58;;;;;;;10.32;5.00;;;15.50;57.80;;;;;;5016566;28;20021;-58
2022/03/08 09:55:25;;;;;;;8.88;4.80;;;15.50;57.80;;;;;;5014115;28;20113;-58
2022/03/08 09:57:51;;;;;;;11.80;4.55;;;15.50;57.70;;;;;;5017017;28;20037;-58
2022/03/08 10:00:17;;;;;;;8.60;4.90;;;15.50;57.80;;;;;;5017292;28;20446;-58
2022/03/08 10:02:47;;;;;;;8.73;4.85;;;15.40;57.80;;;;;;5017144;28;20037;-58
2022/03/08 10:05:13;;;;;;;8.48;4.63;;;15.50;57.80;;;;;;5015133;28;20030;-58
2022/03/08 10:07:38;;;;;;;8.57;4.65;;;15.50;57.80;;;;;;5027271;28;20597;-58
2022/03/08 10:10:05;;;;;;;8.30;4.60;;;15.50;57.80;;;;;;5023609;28;20496;-59
2022/03/08 10:12:31;;;;;;;8.10;4.50;;;15.40;57.70;;;;;;5019849;28;20484;-58
2022/03/08 10:14:58;;;;;;;9.30;4.63;;;15.50;57.70;;;;;;5017066;28;20109;-58
2022/03/08 10:17:39;;;;;;;9.02;5.03;;;15.40;57.70;;;;;;5016467;28;20038;-59
2022/03/08 10:20:10;;;;;;;8.82;4.63;;;15.40;57.70;;;;;;5013463;28;20128;-59
2022/03/08 10:22:37;;;;;;;7.43;4.40;;;15.50;57.80;;;;;;5012279;28;20084;-59
2022/03/08 10:25:09;;;;;;;7.70;4.30;;;15.40;57.70;;;;;;5016349;28;20022;-59
2022/03/08 10:27:34;;;;;;;8.35;4.63;;;15.40;57.60;;;;;;5025331;28;20041;-59
2022/03/08 10:30:01;;;;;;;8.65;4.57;;;15.40;57.60;;;;;;5022344;28;20511;-58
2022/03/08 10:32:34;;;;;;;8.25;4.60;;;15.40;57.60;;;;;;5016526;28;20025;-58
2022/03/08 10:35:01;;;;;;;8.20;4.60;;;15.40;57.60;;;;;;5013323;28;20018;-59
2022/03/08 10:37:27;;;;;;;7.88;4.40;;;15.50;57.60;;;;;;5016480;28;20585;-58
2022/03/08 10:39:53;;;;;;;8.73;4.65;;;15.40;57.50;;;;;;5026420;28;20084;-58
2022/03/08 10:42:26;;;;;;;8.55;4.60;;;15.40;57.50;;;;;;5024964;28;20057;-58
2022/03/08 10:44:59;;;;;;;8.18;4.43;;;15.40;57.60;;;;;;5020421;28;20105;-58
2022/03/08 10:47:25;;;;;;;11.00;4.65;;;15.40;57.50;;;;;;5020148;28;20036;-58
2022/03/08 10:49:57;;;;;;;8.63;4.75;;;15.40;57.60;;;;;;5015415;28;20017;-58
2022/03/08 10:52:34;;;;;;;8.82;4.45;;;15.40;57.50;;;;;;5028810;28;20026;-58
2022/03/08 10:55:09;;;;;;;7.82;4.15;;;15.40;57.50;;;;;;5018960;28;20033;-59
2022/03/08 10:57:34;;;;;;;;;;;15.40;57.50;;;;;;5022107;28;20479;-59
2022/03/08 11:00:00;;;;;;;9.35;4.90;;;15.40;57.50;;;;;;5020170;28;20009;-58
2022/03/08 11:02:26;;;;;;;8.75;4.70;;;15.40;57.50;;;;;;5019765;28;20112;-58
2022/03/08 11:05:10;;;;;;;7.90;4.70;;;15.40;57.50;;;;;;5015256;28;20026;-58
2022/03/08 11:07:36;;;;;;;7.90;4.75;;;15.40;57.60;;;;;;5031079;28;20037;-58
2022/03/08 11:10:06;;;;;;;8.18;4.70;;;15.40;57.50;;;;;;5022832;28;20021;-58
2022/03/08 11:12:32;;;;;;;7.90;4.60;;;15.40;57.40;;;;;;5022398;28;20033;-58
2022/03/08 11:14:58;;;;;;;8.77;4.80;;;15.40;57.40;;;;;;5019973;28;20025;-58
2022/03/08 11:17:23;;;;;;;8.40;4.80;;;15.50;57.40;;;;;;5019261;28;20409;-58
2022/03/08 11:19:49;;;;;;;8.43;4.65;;;15.50;57.30;;;;;;5014708;28;20021;-58
2022/03/08 11:22:19;;;;;;;7.47;4.00;;;15.50;57.30;;;;;;5017647;28;20034;-58
2022/03/08 11:24:46;;;;;;;7.72;4.28;;;15.50;57.30;;;;;;5024655;28;20027;-58
2022/03/08 11:27:14;;;;;;;7.60;4.30;;;15.50;57.30;;;;;;5026582;28;20041;-58
2022/03/08 11:29:40;;;;;;;8.88;4.47;;;15.50;57.30;;;;;;5029271;28;20417;-58
2022/03/08 11:32:09;;;;;;;7.65;4.25;;;15.50;57.20;;;;;;5016797;28;20029;-58
2022/03/08 11:34:44;;;;;;;7.57;4.30;;;15.40;57.20;;;;;;5013624;28;20105;-58
2022/03/08 11:37:22;;;;;;;8.18;4.50;;;15.50;57.30;;;;;;5016374;28;20033;-58
2022/03/08 11:40:07;;;;;;;8.38;4.50;;;15.50;57.20;;;;;;5033431;28;20042;-58
2022/03/08 11:42:34;;;;;;;8.77;4.43;;;15.50;57.20;;;;;;5019349;28;20049;-58
2022/03/08 11:45:05;;;;;;;8.00;4.15;;;15.50;57.30;;;;;;5019330;28;20029;-59
2022/03/08 11:47:42;;;;;;;9.02;4.32;;;15.50;57.30;;;;;;5018490;28;20029;-58
2022/03/08 11:50:23;;;;;;;8.07;4.32;;;15.50;58.20;;;;;;5016590;28;20542;-58
2022/03/08 11:53:04;;;;;;;7.75;4.20;;;15.50;57.20;;;;;;5024421;28;20083;-58
2022/03/08 11:55:30;;;;;;;8.30;4.15;;;15.50;57.10;;;;;;5027759;28;20022;-58
2022/03/08 11:58:15;;;;;;;6.78;4.05;;;15.50;57.10;;;;;;5019250;28;20479;-58
2022/03/08 12:00:42;;;;;;;8.57;4.50;;;15.50;57.00;;;;;;5019253;28;20030;-58
2022/03/08 12:03:09;;;;;;;7.97;4.30;;;15.50;57.00;;;;;;5018607;28;20036;-59
2022/03/08 12:05:37;;;;;;;7.72;4.30;;;15.50;57.00;;;;;;5019189;28;20032;-58
2022/03/08 12:08:25;;;;;;;7.07;4.05;;;15.60;57.00;;;;;;5015513;28;20509;-58
2022/03/08 12:10:58;;;;;;;6.72;3.92;;;15.60;56.90;;;;;;5028372;28;20029;-58
2022/03/08 12:13:27;;;;;;;6.82;3.55;;;15.60;56.90;;;;;;5027310;28;20033;-58
2022/03/08 12:16:08;;;;;;;8.45;4.25;;;15.60;56.90;;;;;;5030487;28;20030;-59
2022/03/08 12:18:46;;;;;;;8.48;4.13;;;15.60;56.90;;;;;;5020942;28;20442;-58
2022/03/08 12:21:17;;;;;;;8.45;4.13;;;15.60;56.80;;;;;;5018532;28;20113;-59
2022/03/08 12:23:56;;;;;;;7.70;3.90;;;15.60;56.80;;;;;;5018660;28;20029;-58
2022/03/08 12:26:23;;;;;;;7.35;3.80;;;15.60;56.70;;;;;;5023023;28;20075;-58
2022/03/08 12:29:21;;;;;;;7.40;4.03;;;15.70;56.80;;;;;;5013911;28;20494;-58
2022/03/08 12:32:01;;;;;;;6.95;3.80;;;15.70;56.80;;;;;;5028362;28;20029;-59
2022/03/08 12:34:39;;;;;;;7.80;4.00;;;15.60;56.80;;;;;;5026422;28;20025;-58
2022/03/08 12:37:07;;;;;;;7.72;3.67;;;15.70;56.80;;;;;;5017304;28;20067;-58
2022/03/08 12:39:54;;;;;;;6.53;3.63;;;15.60;56.70;;;;;;5018120;28;20034;-58
2022/03/08 12:42:30;;;;;;;6.63;3.70;;;15.60;56.70;;;;;;5022314;28;20771;-59
2022/03/08 12:45:02;;;;;;;7.40;4.03;;;15.60;56.70;;;;;;5025429;28;20034;-58